Terminal Aerodrome Forecast
Issued by NWS

Home | Current Version | Previous Version | Text Only | Print | Product List | Glossary On
Versions: 1 2 3 4 5 6 7 8 9 10 11 12 13 14 15 16
000
FTUS46 KEKA 250500 RRA
TAFCEC
TAF
KCEC 250543Z 2506/2606 35011KT P6SM SKC
     FM250800 35006KT 6SM BR SKC
     FM251100 34005KT 4SM BR SCT005
     FM251600 31010KT P6SM SKC
     FM252000 32014G22KT P6SM SKC
     FM260300 34010KT 6SM BR SKC=

USA.gov is the U.S. government's official web portal to all federal, state and local government web resources and services.